Aviation Digital Data Service (ADDS)

Output produced by METARs form (1058 UTC 19 April 2015)
found at http://www.aviationweather.gov/adds/metars/
 
KDFW 190921Z 1909/2012 18005KT P6SM SCT020 SCT250 
     FM191200 19007KT P6SM BKN015 
     FM191400 18009KT P6SM SCT025 
     FM191700 24010G20KT P6SM SKC 
     FM192000 29016G26KT P6SM SKC 
     FM200100 33008KT P6SM SKC